Latest Weather Observations for Sellicks Hill

IDS60801

Issued at 1:41 am CST Friday 29 May 2020 (issued every 10 minutes, with the page automatically refreshed every 10 minutes)

About weather observations | Map of weather stations | Latest weather observations for SA | Other Formats
Station Details ID: 023886 Name: MOUNT TERRIBLE RADAR Lat: -35.33 Lon: 138.50 Height: 385.7 m
Data from the previous 72 hours. | See also: Recent months at Sellicks Hill
Date/Time
CST
Temp
°C
App
Temp
°C
Dew
Point
°C
Rel
Hum
%
Delta-T
°C
Wind Press
QNH
hPa
Press
MSL
hPa
Rain since
9am
mm
Dir  Spd
km/h
Gust
km/h
Spd
kts
Gust
kts
29/01:30am - - - - - N 7 9 4 5 - - -
29/01:00am - - - - - NNE 7 11 4 6 - - -
29/12:30am - - - - - NNE 7 11 4 6 - - -
29/12:00am - - - - - NE 7 13 4 7 - - -
 
Date/Time
CST
Temp
°C
App
Temp
°C
Dew
Point
°C
Rel
Hum
%
Delta-T
°C
Wind Press
QNH
hPa
Press
MSL
hPa
Rain since
9am
mm
Dir  Spd
km/h
Gust
km/h
Spd
kts
Gust
kts
28/11:30pm - - - - - NE 6 9 3 5 - - -
28/11:00pm - - - - - NNE 7 13 4 7 - - -
28/10:30pm - - - - - NNE 6 7 3 4 - - -
28/10:00pm - - - - - NNE 4 7 2 4 - - -
28/09:30pm - - - - - NNE 6 11 3 6 - - -
28/09:00pm - - - - - NNE 4 9 2 5 - - -
28/08:30pm - - - - - N 4 7 2 4 - - -
28/08:00pm - - - - - N 4 6 2 3 - - -
28/07:30pm - - - - - N 6 7 3 4 - - -
28/07:00pm - - - - - NE 2 6 1 3 - - -
28/06:30pm - - - - - N 2 6 1 3 - - -
28/06:00pm - - - - - N 2 6 1 3 - - -
28/05:30pm - - - - - N 4 7 2 4 - - -
28/05:00pm - - - - - NNW 6 9 3 5 - - -
28/04:30pm - - - - - NNW 7 13 4 7 - - -
28/04:00pm - - - - - NNW 7 13 4 7 - - -
28/03:30pm - - - - - NNW 9 15 5 8 - - -
28/03:00pm - - - - - NNW 7 17 4 9 - - -
28/02:30pm - - - - - NW 7 17 4 9 - - -
28/02:00pm - - - - - NNW 13 20 7 11 - - -
28/01:30pm - - - - - NW 9 19 5 10 - - -
28/01:00pm - - - - - NNW 7 15 4 8 - - -
28/12:30pm - - - - - NNW 9 22 5 12 - - -
28/12:00pm - - - - - NW 9 20 5 11 - - -
28/11:30am - - - - - NW 9 22 5 12 - - -
28/11:00am - - - - - NW 11 20 6 11 - - -
28/10:30am - - - - - NW 11 20 6 11 - - -
28/10:00am - - - - - NW 9 17 5 9 - - -
28/09:30am - - - - - NNW 11 19 6 10 - - -
28/09:00am - - - - - NNW 9 17 5 9 - - -
28/08:30am - - - - - NNW 9 19 5 10 - - -
28/08:00am - - - - - NW 9 17 5 9 - - -
28/07:30am - - - - - NW 9 17 5 9 - - -
28/07:00am - - - - - NW 9 15 5 8 - - -
28/06:30am - - - - - NW 6 15 3 8 - - -
28/06:00am - - - - - NW 9 19 5 10 - - -
28/05:30am - - - - - NW 6 9 3 5 - - -
28/05:00am - - - - - WNW 7 17 4 9 - - -
28/04:30am - - - - - WNW 9 17 5 9 - - -
28/04:00am - - - - - NW 11 20 6 11 - - -
28/03:30am - - - - - NW 9 20 5 11 - - -
28/03:00am - - - - - NNW 7 17 4 9 - - -
28/02:30am - - - - - NNW 9 13 5 7 - - -
28/02:00am - - - - - NNW 9 17 5 9 - - -
28/01:30am - - - - - NNW 7 15 4 8 - - -
28/01:00am - - - - - NNW 7 13 4 7 - - -
28/12:30am - - - - - NNW 7 15 4 8 - - -
28/12:00am - - - - - NNW 7 13 4 7 - - -
 
Date/Time
CST
Temp
°C
App
Temp
°C
Dew
Point
°C
Rel
Hum
%
Delta-T
°C
Wind Press
QNH
hPa
Press
MSL
hPa
Rain since
9am
mm
Dir  Spd
km/h
Gust
km/h
Spd
kts
Gust
kts
27/11:30pm - - - - - NNW 7 13 4 7 - - -
27/11:00pm - - - - - NNW 6 11 3 6 - - -
27/10:30pm - - - - - NNW 6 9 3 5 - - -
27/10:00pm - - - - - NNW 6 7 3 4 - - -
27/09:30pm - - - - - NNW 6 11 3 6 - - -
27/09:00pm - - - - - NNW 6 7 3 4 - - -
27/08:30pm - - - - - NNW 7 11 4 6 - - -
27/08:00pm - - - - - NNW 9 13 5 7 - - -
27/07:30pm - - - - - NW 7 15 4 8 - - -
27/07:00pm - - - - - NW 6 11 3 6 - - -
27/06:30pm - - - - - NNW 9 13 5 7 - - -
27/06:00pm - - - - - NNW 9 13 5 7 - - -
27/05:30pm - - - - - NNW 7 13 4 7 - - -
27/05:00pm - - - - - NNW 9 15 5 8 - - -
27/04:30pm - - - - - NNW 7 15 4 8 - - -
27/04:00pm - - - - - NNW 7 15 4 8 - - -
27/03:30pm - - - - - NNW 9 19 5 10 - - -
27/03:00pm - - - - - NW 7 13 4 7 - - -
27/02:30pm - - - - - NW 7 19 4 10 - - -
27/02:00pm - - - - - NNW 13 24 7 13 - - -
27/01:30pm - - - - - NNW 11 22 6 12 - - -
27/01:00pm - - - - - NNW 13 24 7 13 - - -
27/12:30pm - - - - - NNW 13 20 7 11 - - -
27/12:00pm - - - - - NNW 15 26 8 14 - - -
27/11:30am - - - - - NNW 15 26 8 14 - - -
27/11:00am - - - - - NNW 15 24 8 13 - - -
27/10:30am - - - - - NNW 15 24 8 13 - - -
27/10:00am - - - - - NNW 11 19 6 10 - - -
27/09:30am - - - - - NNW 7 13 4 7 - - -
27/09:00am - - - - - N 9 24 5 13 - - -
27/08:30am - - - - - N 13 24 7 13 - - -
27/08:00am - - - - - N 13 24 7 13 - - -
27/07:30am - - - - - N 11 19 6 10 - - -
27/07:00am - - - - - N 9 24 5 13 - - -
27/06:30am - - - - - NNW 11 17 6 9 - - -
27/06:00am - - - - - NNW 15 24 8 13 - - -
27/05:30am - - - - - NNW 13 20 7 11 - - -
27/05:00am - - - - - NNW 15 30 8 16 - - -
27/04:30am - - - - - NNW 19 28 10 15 - - -
27/04:00am - - - - - NNW 15 28 8 15 - - -
27/03:30am - - - - - NNW 11 19 6 10 - - -
27/03:00am - - - - - N 9 17 5 9 - - -
27/02:30am - - - - - N 9 17 5 9 - - -
27/02:00am - - - - - N 11 20 6 11 - - -
27/01:30am - - - - - N 13 30 7 16 - - -
27/01:00am - - - - - N 9 19 5 10 - - -
27/12:30am - - - - - NNW 13 20 7 11 - - -
27/12:00am - - - - - N 13 22 7 12 - - -
 
Date/Time
CST
Temp
°C
App
Temp
°C
Dew
Point
°C
Rel
Hum
%
Delta-T
°C
Wind Press
QNH
hPa
Press
MSL
hPa
Rain since
9am
mm
Dir  Spd
km/h
Gust
km/h
Spd
kts
Gust
kts
26/11:30pm - - - - - N 11 22 6 12 - - -
26/11:00pm - - - - - N 11 24 6 13 - - -
26/10:30pm - - - - - N 13 20 7 11 - - -
26/10:00pm - - - - - N 11 20 6 11 - - -
26/09:30pm - - - - - NNW 13 20 7 11 - - -
26/09:00pm - - - - - NNW 11 19 6 10 - - -
26/08:30pm - - - - - NNW 13 22 7 12 - - -
26/08:00pm - - - - - NNW 17 28 9 15 - - -
26/07:30pm - - - - - NNW 15 28 8 15 - - -
26/07:00pm - - - - - NNW 13 22 7 12 - - -
26/06:30pm - - - - - NNW 13 19 7 10 - - -
26/06:00pm - - - - - NNW 13 24 7 13 - - -
26/05:30pm - - - - - N 9 19 5 10 - - -
26/05:00pm - - - - - N 9 20 5 11 - - -
26/04:30pm - - - - - NNW 9 13 5 7 - - -
26/04:00pm - - - - - N 9 15 5 8 - - -
26/03:30pm - - - - - N 9 20 5 11 - - -
26/03:00pm - - - - - NNW 11 19 6 10 - - -
26/02:30pm - - - - - N 9 20 5 11 - - -
26/02:00pm - - - - - N 13 22 7 12 - - -
26/01:30pm - - - - - NNW 13 26 7 14 - - -
26/01:00pm - - - - - NNW 17 28 9 15 - - -
26/12:30pm - - - - - NNW 19 32 10 17 - - -
26/12:00pm - - - - - NNW 20 39 11 21 - - -
26/11:30am - - - - - NNW 24 37 13 20 - - -
26/11:00am - - - - - NNW 19 30 10 16 - - -
26/10:30am - - - - - NNW 19 32 10 17 - - -
26/10:00am - - - - - NNW 19 30 10 16 - - -
26/09:30am - - - - - NNW 17 28 9 15 - - -
26/09:00am - - - - - NNW 19 35 10 19 - - -
26/08:30am - - - - - N 17 24 9 13 - - -
26/08:00am - - - - - N 15 24 8 13 - - -
26/07:30am - - - - - NNW 19 28 10 15 - - -
26/07:00am - - - - - NNW 15 26 8 14 - - -
26/06:30am - - - - - N 17 28 9 15 - - -
26/06:00am - - - - - N 17 28 9 15 - - -
26/05:30am - - - - - N 15 30 8 16 - - -
26/05:00am - - - - - N 15 26 8 14 - - -
26/04:30am - - - - - N 13 20 7 11 - - -
26/04:00am - - - - - N 11 17 6 9 - - -
26/03:30am - - - - - N 11 20 6 11 - - -
26/03:00am - - - - - N 11 17 6 9 - - -
26/02:30am - - - - - N 9 17 5 9 - - -
26/02:00am - - - - - N 13 22 7 12 - - -

Other formats

Comma delimited format used in spreadsheet applications
http://www.bom.gov.au/fwo/IDS60801/IDS60801.95679.axf

JavaScript Object Notation format (JSON) in row-major order
http://www.bom.gov.au/fwo/IDS60801/IDS60801.95679.json

Data quality

Most of these data are generated automatically and are frequently updated. Quality checks on data are not normally performed. It is possible for incorrect values to appear. Refer to information at About Latest Weather Observations and please check the disclaimer before using these data.